Time;durP1;ratioP1;P1;durP2;ratioP2;P2;SDS_P1;SDS_P2;PMS_P1;PMS_P2;Temp;Humidity;BMP_temperature;BMP_pressure;BME280_temperature;BME280_humidity;BME280_pressure;Samples;Min_cycle;Max_cycle;Signal;HPM_P1;HPM_P2
2021/04/25 00:01:20;;;;;;;18.85;8.63;;;8.00;83.80;;;;;;3456923;41;20060;-83
2021/04/25 00:03:49;;;;;;;;;;;7.90;86.00;;;;;;3454445;41;20058;-82
2021/04/25 00:06:20;;;;;;;18.42;8.07;;;7.80;86.80;;;;;;3459511;41;19937;-83
2021/04/25 00:09:03;;;;;;;15.70;8.02;;;8.00;86.40;;;;;;3466587;41;20046;-85
2021/04/25 00:11:32;;;;;;;17.42;8.30;;;8.00;86.80;;;;;;3470310;41;20118;-84
2021/04/25 00:14:01;;;;;;;17.23;9.03;;;8.00;86.60;;;;;;3461442;41;20034;-87
2021/04/25 00:16:29;;;;;;;;;;;8.00;87.20;;;;;;3458233;41;20030;-87
2021/04/25 00:18:59;;;;;;;;;;;7.90;88.70;;;;;;3472672;41;19973;-81
2021/04/25 00:21:27;;;;;;;15.10;7.43;;;7.80;89.80;;;;;;3466072;41;19948;-81
2021/04/25 00:23:55;;;;;;;18.45;8.23;;;7.80;88.60;;;;;;3456935;41;20059;-83
2021/04/25 00:26:23;;;;;;;;;;;7.90;88.00;;;;;;3456664;41;21086;-82
2021/04/25 00:28:50;;;;;;;16.10;6.65;;;7.80;90.10;;;;;;3461476;41;19948;-82
2021/04/25 00:31:19;;;;;;;14.15;7.32;;;7.90;88.50;;;;;;3445954;41;20090;-84
2021/04/25 00:33:58;;;;;;;16.88;7.85;;;7.90;89.10;;;;;;3465697;41;20038;-83
2021/04/25 00:36:26;;;;;;;18.25;7.75;;;7.80;89.00;;;;;;3465173;41;20042;-82
2021/04/25 00:39:03;;;;;;;28.00;8.13;;;7.80;89.80;;;;;;3471213;41;20039;-87
2021/04/25 00:41:56;;;;;;;14.10;7.60;;;8.10;87.70;;;;;;3461537;41;20042;-83
2021/04/25 00:44:25;;;;;;;16.75;7.70;;;8.20;87.70;;;;;;3454335;41;20079;-82
2021/04/25 00:46:57;;;;;;;16.33;7.03;;;8.30;86.90;;;;;;3460476;41;20060;-81
2021/04/25 00:49:25;;;;;;;17.40;7.30;;;8.30;87.10;;;;;;3471476;41;20098;-82
2021/04/25 00:52:45;;;;;;;20.30;8.95;;;8.10;87.50;;;;;;3454614;41;20066;-81
2021/04/25 00:55:18;;;;;;;17.02;7.50;;;7.90;88.30;;;;;;3463235;41;20090;-82
2021/04/25 00:57:46;;;;;;;21.70;8.20;;;7.80;88.90;;;;;;3455064;41;20094;-84
2021/04/25 01:01:05;;;;;;;18.10;7.78;;;7.70;89.90;;;;;;3453839;41;20112;-81
2021/04/25 01:03:38;;;;;;;13.35;7.15;;;7.60;90.80;;;;;;3445276;41;20071;-81
2021/04/25 01:06:06;;;;;;;15.40;7.53;;;7.40;91.90;;;;;;3454106;41;20103;-81
2021/04/25 01:08:33;;;;;;;16.92;8.00;;;7.30;91.90;;;;;;3442979;41;20079;-84
2021/04/25 01:11:04;;;;;;;18.67;8.50;;;7.20;92.80;;;;;;3437807;41;20099;-84
2021/04/25 01:13:32;;;;;;;17.95;7.28;;;7.20;93.30;;;;;;3462711;41;20046;-84
2021/04/25 01:16:00;;;;;;;16.88;7.88;;;7.30;93.50;;;;;;3442044;41;20047;-89
2021/04/25 01:18:29;;;;;;;16.10;8.82;;;7.30;94.00;;;;;;3446098;41;20067;-87
2021/04/25 01:21:00;;;;;;;18.15;7.82;;;7.30;94.10;;;;;;3438738;41;20059;-85
2021/04/25 01:23:27;;;;;;;21.63;8.30;;;7.40;94.00;;;;;;3454881;41;20067;-81
2021/04/25 01:26:03;;;;;;;20.75;7.75;;;7.40;94.50;;;;;;3448505;41;20111;-83
2021/04/25 01:28:30;;;;;;;16.23;7.75;;;7.30;94.90;;;;;;3449212;41;20063;-82
2021/04/25 01:31:11;;;;;;;13.65;8.32;;;7.40;94.20;;;;;;3455130;41;20360;-85
2021/04/25 01:33:44;;;;;;;15.95;7.25;;;7.40;94.70;;;;;;3432602;41;20068;-81
2021/04/25 01:36:15;;;;;;;18.50;8.70;;;7.50;94.90;;;;;;3454265;41;20072;-83
2021/04/25 01:38:42;;;;;;;15.95;8.02;;;7.50;94.90;;;;;;3447957;41;20601;-81
2021/04/25 01:41:09;;;;;;;17.60;8.45;;;7.60;95.40;;;;;;3452417;41;20074;-81
2021/04/25 01:43:37;;;;;;;20.00;9.50;;;7.60;96.00;;;;;;3451329;41;20384;-80
2021/04/25 01:46:04;;;;;;;23.88;12.48;;;7.50;96.50;;;;;;3445358;41;20079;-81
2021/04/25 01:48:31;;;;;;;22.27;10.95;;;7.50;96.60;;;;;;3435934;41;20082;-80
2021/04/25 01:51:00;;;;;;;17.55;9.30;;;7.50;97.00;;;;;;3435767;41;20064;-82
2021/04/25 01:53:29;;;;;;;16.33;8.20;;;7.70;96.10;;;;;;3437595;41;20075;-85
2021/04/25 01:55:57;;;;;;;14.43;7.70;;;7.90;95.30;;;;;;3444012;41;20075;-83
2021/04/25 01:58:25;;;;;;;17.70;7.70;;;7.90;94.70;;;;;;3452327;41;20068;-84
2021/04/25 02:00:54;;;;;;;16.15;7.90;;;7.90;94.30;;;;;;3450284;41;20099;-85
2021/04/25 02:03:24;;;;;;;16.67;6.80;;;8.00;94.50;;;;;;3434588;41;20063;-82
2021/04/25 02:06:05;;;;;;;17.73;6.85;;;7.80;94.60;;;;;;3462982;41;20079;-82
2021/04/25 02:08:34;;;;;;;18.05;6.47;;;7.60;96.50;;;;;;3456400;41;20072;-83
2021/04/25 02:11:01;;;;;;;11.70;6.47;;;7.40;96.80;;;;;;3464048;41;20072;-87
2021/04/25 02:13:28;;;;;;;10.98;6.38;;;7.30;97.20;;;;;;3456251;41;20041;-83
2021/04/25 02:15:56;;;;;;;19.67;7.93;;;7.20;97.60;;;;;;3457229;41;20050;-82
2021/04/25 02:18:23;;;;;;;18.85;9.75;;;7.20;98.20;;;;;;3451292;41;20057;-82
2021/04/25 02:20:51;;;;;;;22.33;9.73;;;7.30;98.70;;;;;;3457332;41;20034;-83
2021/04/25 02:23:19;;;;;;;20.20;9.80;;;7.30;99.60;;;;;;3465729;41;20034;-83
2021/04/25 02:25:47;;;;;;;23.98;11.55;;;7.20;99.90;;;;;;3449653;41;20038;-82
2021/04/25 02:28:16;;;;;;;22.50;11.20;;;7.20;99.90;;;;;;3455512;41;20067;-86
2021/04/25 02:30:44;;;;;;;17.40;9.13;;;7.20;99.90;;;;;;3461439;41;20062;-83
2021/04/25 02:33:16;;;;;;;16.17;7.15;;;7.20;99.90;;;;;;3463783;41;20041;-84
2021/04/25 02:35:46;;;;;;;18.13;8.10;;;7.30;99.80;;;;;;3455912;41;20091;-82
2021/04/25 02:38:15;;;;;;;16.00;7.43;;;7.30;99.90;;;;;;3467758;41;20090;-82
2021/04/25 02:40:43;;;;;;;15.48;6.47;;;7.40;99.90;;;;;;3451848;41;20035;-82
2021/04/25 02:43:12;;;;;;;12.90;6.72;;;7.30;99.50;;;;;;3455351;41;20068;-82
2021/04/25 02:45:40;;;;;;;15.50;7.68;;;7.30;99.60;;;;;;3456423;41;20074;-83
2021/04/25 02:48:09;;;;;;;16.65;7.35;;;7.20;99.90;;;;;;3463832;41;20046;-83
2021/04/25 02:50:39;;;;;;;13.70;7.32;;;7.20;99.90;;;;;;3463246;41;20038;-84
2021/04/25 02:53:08;;;;;;;13.23;6.70;;;7.00;99.90;;;;;;3455071;41;20074;-83
2021/04/25 02:55:36;;;;;;;11.30;6.10;;;7.00;99.90;;;;;;3457102;41;20027;-84
2021/04/25 02:58:04;;;;;;;13.15;6.68;;;6.80;99.90;;;;;;3456567;41;20034;-83
2021/04/25 03:00:34;;;;;;;11.02;6.45;;;6.70;99.90;;;;;;3459482;41;20039;-82
2021/04/25 03:03:02;;;;;;;15.85;7.13;;;6.80;99.90;;;;;;3470938;41;20050;-82
2021/04/25 03:05:34;;;;;;;17.55;7.45;;;6.90;99.90;;;;;;3447593;41;20148;-81
2021/04/25 03:08:01;;;;;;;13.55;6.35;;;6.90;99.90;;;;;;3463572;41;20079;-83
2021/04/25 03:10:29;;;;;;;13.02;5.97;;;6.80;99.90;;;;;;3457789;41;20031;-82
2021/04/25 03:13:00;;;;;;;11.48;5.20;;;6.60;99.90;;;;;;3463344;41;20055;-82
2021/04/25 03:15:34;;;;;;;18.80;6.35;;;6.50;99.90;;;;;;3453312;41;20042;-82
2021/04/25 03:18:02;;;;;;;12.90;5.50;;;6.80;99.90;;;;;;3460096;41;20094;-83
2021/04/25 03:20:37;;;;;;;13.68;5.82;;;6.80;99.90;;;;;;3454499;41;20038;-83
2021/04/25 03:23:06;;;;;;;9.68;5.50;;;6.60;99.90;;;;;;3455465;41;20034;-82
2021/04/25 03:25:41;;;;;;;11.43;5.88;;;6.50;99.90;;;;;;3458011;41;20058;-83
2021/04/25 03:28:09;;;;;;;18.08;4.97;;;6.40;99.90;;;;;;3465316;41;20070;-83
2021/04/25 03:30:37;;;;;;;11.23;5.28;;;6.60;99.90;;;;;;3462540;41;20074;-81
2021/04/25 03:33:06;;;;;;;10.93;4.60;;;6.60;99.90;;;;;;3465611;41;20066;-81
2021/04/25 03:35:33;;;;;;;12.90;4.80;;;6.70;99.90;;;;;;3459657;41;20094;-84
2021/04/25 03:38:01;;;;;;;12.15;4.78;;;6.70;99.90;;;;;;3446024;41;20441;-83
2021/04/25 03:40:29;;;;;;;10.43;4.35;;;6.70;99.90;;;;;;3448123;41;20353;-82
2021/04/25 03:42:56;;;;;;;10.80;4.03;;;6.60;99.90;;;;;;3446274;41;20039;-82
2021/04/25 03:45:24;;;;;;;9.48;3.97;;;6.60;99.90;;;;;;3449335;41;20060;-82
2021/04/25 03:47:53;;;;;;;9.77;4.43;;;6.50;99.90;;;;;;3448807;41;20063;-83
2021/04/25 03:50:22;;;;;;;10.23;4.28;;;6.50;99.90;;;;;;3459820;41;20072;-84
2021/04/25 03:52:52;;;;;;;9.20;4.43;;;6.50;99.90;;;;;;3444691;41;20091;-84
2021/04/25 03:55:21;;;;;;;7.72;4.15;;;6.40;99.90;;;;;;3453010;41;20063;-81
2021/04/25 03:57:48;;;;;;;10.43;4.88;;;6.30;99.90;;;;;;3444565;41;20079;-81
2021/04/25 04:00:18;;;;;;;11.88;5.65;;;6.20;99.90;;;;;;3444178;41;20075;-81
2021/04/25 04:02:46;;;;;;;9.93;4.40;;;6.20;99.90;;;;;;3451840;41;20071;-82
2021/04/25 04:05:15;;;;;;;13.18;4.93;;;6.10;99.90;;;;;;3439170;41;20051;-81
2021/04/25 04:07:43;;;;;;;11.32;5.70;;;6.20;99.90;;;;;;3446461;41;20071;-81
2021/04/25 04:10:11;;;;;;;14.87;5.10;;;6.30;99.90;;;;;;3464217;41;20041;-82
2021/04/25 04:12:38;;;;;;;11.55;5.03;;;6.40;99.90;;;;;;3464718;41;20064;-83
2021/04/25 04:15:08;;;;;;;13.07;5.75;;;6.40;99.90;;;;;;3458235;41;20057;-82
2021/04/25 04:17:36;;;;;;;12.25;5.40;;;6.40;99.90;;;;;;3458064;41;20051;-83
2021/04/25 04:20:06;;;;;;;14.77;4.77;;;6.40;99.90;;;;;;3458431;41;20049;-85
2021/04/25 04:22:39;;;;;;;10.80;4.97;;;6.50;99.90;;;;;;3451123;41;20318;-82
2021/04/25 04:25:07;;;;;;;9.65;5.00;;;6.50;99.90;;;;;;3458059;41;20054;-83
2021/04/25 04:27:35;;;;;;;9.05;5.22;;;6.60;99.90;;;;;;3451001;41;20073;-82
2021/04/25 04:30:04;;;;;;;12.70;5.80;;;6.60;99.90;;;;;;3458366;41;20030;-83
2021/04/25 04:32:31;;;;;;;;;;;6.70;99.90;;;;;;3466005;41;20062;-82
2021/04/25 04:34:59;;;;;;;12.95;4.93;;;6.80;99.90;;;;;;3458232;41;19988;-83
2021/04/25 04:37:28;;;;;;;11.10;5.45;;;6.70;99.90;;;;;;3457354;41;20043;-82
2021/04/25 04:39:57;;;;;;;10.90;6.05;;;6.70;99.90;;;;;;3465498;41;20039;-82
2021/04/25 04:42:24;;;;;;;;;;;6.80;99.90;;;;;;3458363;41;20034;-81
2021/04/25 04:45:23;;;;;;;10.75;4.85;;;6.70;99.90;;;;;;3456556;41;20231;-83
2021/04/25 04:47:52;;;;;;;10.57;5.32;;;6.70;99.90;;;;;;3453620;41;20058;-82
2021/04/25 04:50:22;;;;;;;10.70;5.15;;;6.80;99.90;;;;;;3449528;41;20043;-82
2021/04/25 04:52:53;;;;;;;15.82;5.47;;;6.80;99.90;;;;;;3464580;41;20082;-81
2021/04/25 04:55:28;;;;;;;14.93;5.55;;;6.90;99.90;;;;;;3457052;41;20074;-83
2021/04/25 04:57:56;;;;;;;15.45;5.50;;;6.90;99.90;;;;;;3448569;41;20066;-88
2021/04/25 05:00:24;;;;;;;15.82;5.30;;;7.00;99.90;;;;;;3463612;41;20042;-80
2021/04/25 05:02:53;;;;;;;11.68;5.25;;;7.20;99.90;;;;;;3462461;41;20079;-83
2021/04/25 05:05:24;;;;;;;12.32;5.50;;;7.20;99.90;;;;;;3456395;41;20043;-83
2021/04/25 05:07:52;;;;;;;14.40;4.90;;;7.30;99.90;;;;;;3470867;41;20099;-83
2021/04/25 05:10:22;;;;;;;9.57;5.30;;;7.30;99.90;;;;;;3455424;41;20090;-81
2021/04/25 05:12:51;;;;;;;11.00;5.00;;;7.30;99.90;;;;;;3463273;41;20098;-81
2021/04/25 05:15:19;;;;;;;9.40;4.43;;;7.30;99.90;;;;;;3461407;41;20063;-82
2021/04/25 05:17:48;;;;;;;12.93;4.50;;;7.40;99.80;;;;;;3460669;41;20098;-81
2021/04/25 05:20:16;;;;;;;9.45;4.70;;;7.40;99.80;;;;;;3452733;41;20066;-82
2021/04/25 05:22:44;;;;;;;10.45;5.38;;;7.50;99.40;;;;;;3445398;41;20079;-83
2021/04/25 05:25:12;;;;;;;15.60;5.25;;;7.60;99.40;;;;;;3469870;41;20097;-84
2021/04/25 05:27:40;;;;;;;8.00;4.25;;;7.70;98.60;;;;;;3462092;41;20075;-81
2021/04/25 05:30:18;;;;;;;8.38;4.07;;;7.70;98.10;;;;;;3456348;41;20047;-83
2021/04/25 05:33:04;;;;;;;8.38;3.83;;;7.70;98.10;;;;;;3460744;41;20083;-81
2021/04/25 05:35:34;;;;;;;8.82;3.95;;;7.70;97.80;;;;;;3471089;41;20046;-83
2021/04/25 05:38:08;;;;;;;7.05;3.50;;;7.80;98.10;;;;;;3472916;41;20059;-82
2021/04/25 05:40:36;;;;;;;9.15;3.58;;;7.80;98.00;;;;;;3457492;41;20046;-82
2021/04/25 05:43:08;;;;;;;9.73;3.33;;;7.60;98.50;;;;;;3464629;41;20094;-82
2021/04/25 05:45:36;;;;;;;8.07;3.93;;;7.50;99.20;;;;;;3457316;41;20069;-83
2021/04/25 05:48:05;;;;;;;8.40;3.60;;;7.50;99.60;;;;;;3464362;41;20079;-83
2021/04/25 05:50:35;;;;;;;14.23;4.45;;;7.50;99.90;;;;;;3457517;41;20038;-82
2021/04/25 05:53:04;;;;;;;6.50;3.00;;;7.60;99.80;;;;;;3465124;41;20070;-82
2021/04/25 05:55:32;;;;;;;11.05;3.95;;;7.60;99.90;;;;;;3463792;41;20055;-84
2021/04/25 05:58:02;;;;;;;7.60;3.35;;;7.50;99.60;;;;;;3456210;41;20070;-83
2021/04/25 06:00:38;;;;;;;8.20;3.10;;;7.70;99.90;;;;;;3463319;41;20313;-83
2021/04/25 06:03:14;;;;;;;6.78;3.22;;;7.80;99.50;;;;;;3463675;41;20071;-82
2021/04/25 06:05:56;;;;;;;6.95;3.03;;;7.80;99.50;;;;;;3457090;41;20035;-80
2021/04/25 06:08:26;;;;;;;9.27;3.60;;;7.80;98.70;;;;;;3445281;41;20076;-82
2021/04/25 06:11:17;;;;;;;9.25;2.92;;;7.80;98.60;;;;;;3452497;41;20060;-81
2021/04/25 06:13:54;;;;;;;7.32;3.38;;;7.70;98.50;;;;;;3445205;41;20452;-84
2021/04/25 06:16:23;;;;;;;10.65;3.92;;;7.60;98.50;;;;;;3445170;41;20067;-83
2021/04/25 06:18:52;;;;;;;7.50;2.88;;;7.60;98.80;;;;;;3437780;41;20039;-83
2021/04/25 06:21:21;;;;;;;8.45;2.85;;;7.60;98.80;;;;;;3446088;41;20050;-81
2021/04/25 06:24:00;;;;;;;7.05;2.55;;;7.60;98.60;;;;;;3417053;42;20073;-81
2021/04/25 06:27:26;;;;;;;8.63;2.80;;;7.60;98.70;;;;;;3438048;41;20044;-82
2021/04/25 06:30:15;;;;;;;6.93;2.45;;;7.60;98.60;;;;;;3430527;41;20456;-83
2021/04/25 06:32:48;;;;;;;9.85;2.90;;;7.70;98.50;;;;;;3444524;41;20079;-86
2021/04/25 06:35:23;;;;;;;6.85;2.78;;;7.70;98.70;;;;;;3436704;41;20079;-84
2021/04/25 06:38:04;;;;;;;9.02;2.97;;;7.70;98.40;;;;;;3444901;41;20100;-87
2021/04/25 06:41:27;;;;;;;8.13;2.78;;;7.60;98.60;;;;;;3454605;41;20045;-84
2021/04/25 06:43:57;;;;;;;9.55;3.45;;;7.60;98.90;;;;;;3450439;41;20065;-82
2021/04/25 06:46:29;;;;;;;6.97;2.60;;;7.50;99.50;;;;;;3470678;41;20038;-85
2021/04/25 06:49:00;;;;;;;8.40;2.78;;;7.40;99.90;;;;;;3456892;41;20050;-83
2021/04/25 06:51:47;;;;;;;7.95;2.70;;;7.30;99.90;;;;;;3448880;41;20158;-87
2021/04/25 06:54:14;;;;;;;7.80;2.90;;;7.10;99.90;;;;;;3454156;41;20063;-83
2021/04/25 06:56:44;;;;;;;17.50;8.70;;;7.10;99.90;;;;;;3456696;41;20046;-82
2021/04/25 06:59:13;;;;;;;9.65;2.90;;;7.10;99.90;;;;;;3458767;41;20074;-84
2021/04/25 07:01:43;;;;;;;7.95;2.80;;;7.20;99.90;;;;;;3454200;41;20038;-83
2021/04/25 07:04:12;;;;;;;9.18;2.90;;;7.30;99.90;;;;;;3462931;41;20039;-82
2021/04/25 07:06:48;;;;;;;10.75;3.42;;;7.60;99.90;;;;;;3448374;41;20067;-83
2021/04/25 07:09:19;;;;;;;8.65;2.70;;;7.80;99.90;;;;;;3457621;41;20038;-82
2021/04/25 07:11:54;;;;;;;8.43;2.90;;;8.10;99.90;;;;;;3457467;41;20050;-87
2021/04/25 07:14:33;;;;;;;9.23;3.08;;;8.40;99.20;;;;;;3458447;41;20049;-83
2021/04/25 07:17:01;;;;;;;6.85;3.40;;;8.50;98.00;;;;;;3457658;41;20069;-83
2021/04/25 07:20:01;;;;;;;8.30;3.53;;;8.50;98.20;;;;;;3445153;41;20035;-82
2021/04/25 07:22:30;;;;;;;9.65;3.47;;;8.70;97.70;;;;;;3443552;41;20087;-82
2021/04/25 07:25:00;;;;;;;10.35;4.07;;;8.50;97.90;;;;;;3436270;41;20123;-82
2021/04/25 07:27:41;;;;;;;11.15;4.50;;;8.60;97.60;;;;;;3438800;41;20042;-83
2021/04/25 07:30:15;;;;;;;10.82;4.80;;;8.70;97.20;;;;;;3446484;41;20038;-82
2021/04/25 07:33:32;;;;;;;12.18;3.75;;;8.80;97.30;;;;;;3436229;42;20039;-84
2021/04/25 07:36:09;;;;;;;12.80;3.78;;;8.90;96.60;;;;;;3447798;41;20051;-81
2021/04/25 07:39:08;;;;;;;9.00;3.50;;;9.10;96.30;;;;;;3439144;41;20059;-85
2021/04/25 07:41:44;;;;;;;11.02;3.55;;;9.20;95.40;;;;;;3446193;41;20059;-82
2021/04/25 07:44:37;;;;;;;8.23;3.50;;;9.30;94.60;;;;;;3437825;41;20088;-81
2021/04/25 07:47:07;;;;;;;7.88;3.25;;;9.30;94.10;;;;;;3445673;41;20103;-82
2021/04/25 07:49:41;;;;;;;13.50;3.80;;;9.40;94.40;;;;;;3441894;41;20092;-82
2021/04/25 07:52:10;;;;;;;12.35;4.38;;;9.50;93.60;;;;;;3451757;41;20075;-82
2021/04/25 07:54:46;;;;;;;12.57;3.67;;;9.70;92.90;;;;;;3449722;41;20058;-82
2021/04/25 07:57:14;;;;;;;14.07;3.38;;;9.90;92.30;;;;;;3452597;41;20059;-84
2021/04/25 07:59:46;;;;;;;7.05;3.45;;;10.00;91.80;;;;;;3453153;41;20083;-80
2021/04/25 08:02:16;;;;;;;13.02;3.60;;;10.10;91.50;;;;;;3462683;41;20086;-81
2021/04/25 08:04:48;;;;;;;14.32;4.03;;;10.10;91.20;;;;;;3446741;41;20304;-82
2021/04/25 08:07:19;;;;;;;10.20;3.88;;;10.20;90.60;;;;;;3454608;41;20083;-82
2021/04/25 08:09:53;;;;;;;8.93;3.83;;;10.20;89.40;;;;;;3453677;41;20083;-83
2021/04/25 08:12:20;;;;;;;12.57;3.92;;;10.30;89.20;;;;;;3452649;41;20082;-85
2021/04/25 08:14:55;;;;;;;7.10;3.35;;;10.20;89.60;;;;;;3462864;41;20067;-84
2021/04/25 08:17:25;;;;;;;11.10;3.67;;;10.30;90.30;;;;;;3452577;41;20063;-82
2021/04/25 08:19:52;;;;;;;14.85;3.92;;;10.40;89.50;;;;;;3452317;41;20079;-84
2021/04/25 08:22:20;;;;;;;10.07;3.67;;;10.60;88.40;;;;;;3453189;41;20078;-82
2021/04/25 08:24:53;;;;;;;10.30;4.25;;;10.70;86.50;;;;;;3446630;41;20068;-81
2021/04/25 08:27:25;;;;;;;12.45;3.90;;;10.70;86.80;;;;;;3454822;41;20078;-82
2021/04/25 08:30:05;;;;;;;14.15;4.03;;;10.50;86.70;;;;;;3455277;41;20070;-82
2021/04/25 08:32:35;;;;;;;11.10;4.35;;;10.70;87.10;;;;;;3454663;41;20067;-82
2021/04/25 08:35:11;;;;;;;12.30;4.00;;;10.80;85.80;;;;;;3463476;41;20059;-82
2021/04/25 08:37:43;;;;;;;15.73;4.70;;;10.90;84.60;;;;;;3449423;41;20098;-83
2021/04/25 08:40:17;;;;;;;14.73;4.82;;;10.80;84.30;;;;;;3471384;41;20081;-83
2021/04/25 08:42:57;;;;;;;11.15;3.72;;;10.80;83.60;;;;;;3462670;41;20079;-80
2021/04/25 08:45:34;;;;;;;8.75;4.00;;;10.80;82.50;;;;;;3455214;41;20079;-82
2021/04/25 08:48:07;;;;;;;11.82;3.72;;;10.80;81.00;;;;;;3454412;41;20074;-82
2021/04/25 08:50:35;;;;;;;8.27;4.18;;;10.90;79.20;;;;;;3456460;41;20050;-85
2021/04/25 08:53:04;;;;;;;10.50;3.92;;;11.00;79.70;;;;;;3464281;41;20062;-83
2021/04/25 08:58:21;;;;;;;11.50;3.92;;;11.20;79.30;;;;;;3463269;41;20062;-81
2021/04/25 09:00:50;;;;;;;11.27;3.97;;;11.30;78.70;;;;;;3465037;41;20057;-87
2021/04/25 09:03:22;;;;;;;11.03;3.80;;;11.30;76.40;;;;;;3464754;41;20035;-83
2021/04/25 09:05:50;;;;;;;13.00;4.00;;;11.00;77.30;;;;;;3440888;41;20347;-83
2021/04/25 09:08:18;;;;;;;12.85;4.15;;;11.20;76.80;;;;;;3463329;41;20070;-83
2021/04/25 09:10:52;;;;;;;12.02;4.40;;;11.40;75.80;;;;;;3461527;41;20063;-83
2021/04/25 09:13:32;;;;;;;10.70;4.47;;;11.60;75.90;;;;;;3454213;41;20070;-85
2021/04/25 09:16:12;;;;;;;14.85;4.28;;;11.60;75.40;;;;;;3461182;41;20071;-83
2021/04/25 09:18:43;;;;;;;16.85;4.13;;;11.80;74.90;;;;;;3446976;41;20086;-85
2021/04/25 09:24:21;;;;;;;12.55;3.85;;;12.00;79.30;;;;;;3471873;41;20358;-80
2021/04/25 09:26:58;;;;;;;10.68;4.45;;;12.10;73.50;;;;;;3455557;41;20086;-80
2021/04/25 09:29:59;;;;;;;12.27;4.63;;;12.10;72.30;;;;;;3447720;41;20060;-82
2021/04/25 09:32:30;;;;;;;15.27;4.68;;;12.10;71.50;;;;;;3462496;41;20070;-82
2021/04/25 09:35:09;;;;;;;14.48;4.20;;;12.30;70.80;;;;;;3454511;41;20419;-81
2021/04/25 09:37:41;;;;;;;9.55;4.32;;;12.50;69.40;;;;;;3454958;41;20079;-81
2021/04/25 09:40:21;;;;;;;9.02;3.83;;;12.60;68.80;;;;;;3454869;41;20087;-81
2021/04/25 09:43:03;;;;;;;11.18;3.83;;;12.80;68.10;;;;;;3454668;41;20254;-80
2021/04/25 09:45:39;;;;;;;12.75;4.13;;;13.00;66.20;;;;;;3454647;41;20198;-82
2021/04/25 09:48:25;;;;;;;13.80;4.43;;;13.00;66.50;;;;;;3454377;41;20082;-81
2021/04/25 09:51:15;;;;;;;11.77;4.13;;;13.20;66.80;;;;;;3454289;41;20093;-83
2021/04/25 09:54:00;;;;;;;9.25;4.05;;;13.30;65.50;;;;;;3469613;41;20142;-81
2021/04/25 09:56:47;;;;;;;13.05;5.70;;;13.40;64.10;;;;;;3460641;41;20094;-82
2021/04/25 09:59:29;;;;;;;10.40;4.35;;;13.50;63.80;;;;;;3453755;41;20113;-82
2021/04/25 10:02:08;;;;;;;9.50;3.95;;;14.00;62.90;;;;;;3451953;41;20078;-81
2021/04/25 10:04:44;;;;;;;12.50;4.10;;;14.30;61.00;;;;;;3453380;41;20066;-82
2021/04/25 10:07:14;;;;;;;14.05;5.65;;;14.10;61.40;;;;;;3454285;41;20090;-81
2021/04/25 10:09:44;;;;;;;6.78;3.50;;;14.30;61.00;;;;;;3459857;41;20070;-86
2021/04/25 10:12:23;;;;;;;9.75;3.60;;;15.00;58.60;;;;;;3436290;41;20071;-84
2021/04/25 10:15:03;;;;;;;11.18;3.80;;;15.10;57.70;;;;;;3445737;41;20082;-83
2021/04/25 10:17:36;;;;;;;9.48;3.70;;;14.60;56.90;;;;;;3454865;41;20074;-81
2021/04/25 10:20:06;;;;;;;11.52;3.83;;;14.30;58.30;;;;;;3458263;41;20057;-81
2021/04/25 10:22:35;;;;;;;11.68;4.05;;;14.60;58.10;;;;;;3456168;41;20083;-81
2021/04/25 10:25:09;;;;;;;12.00;4.40;;;15.10;55.60;;;;;;3456541;41;20061;-82
2021/04/25 10:27:41;;;;;;;6.85;3.25;;;16.00;54.80;;;;;;3453733;41;20151;-83
2021/04/25 10:30:14;;;;;;;11.98;4.50;;;16.60;52.50;;;;;;3455446;41;20090;-82
2021/04/25 10:32:57;;;;;;;9.40;3.80;;;16.70;50.40;;;;;;3455736;41;20094;-82
2021/04/25 10:35:40;;;;;;;9.15;3.55;;;16.40;50.90;;;;;;3489944;24;21302;-83
2021/04/25 10:45:25;;;;;;;11.27;3.83;;;15.90;52.20;;;;;;3550825;24;20334;-82
2021/04/25 10:48:28;;;;;;;8.73;3.30;;;16.30;52.50;;;;;;3477534;41;20078;-84
2021/04/25 10:51:06;;;;;;;10.82;3.63;;;17.30;49.20;;;;;;3474495;41;20098;-84
2021/04/25 10:53:36;;;;;;;10.35;3.20;;;17.80;48.30;;;;;;3479512;41;20073;-85
2021/04/25 10:56:35;;;;;;;6.15;2.92;;;17.50;46.70;;;;;;3460918;41;20062;-83
2021/04/25 10:59:26;;;;;;;10.38;3.55;;;16.40;48.10;;;;;;3458414;41;20062;-84
2021/04/25 11:01:59;;;;;;;11.70;3.10;;;15.60;50.20;;;;;;3469202;41;20300;-85
2021/04/25 11:05:11;;;;;;;9.20;2.67;;;15.20;51.00;;;;;;3485802;41;20038;-85
2021/04/25 11:07:49;;;;;;;6.63;2.78;;;14.60;51.90;;;;;;3467541;41;20382;-84
2021/04/25 11:10:23;;;;;;;10.07;3.22;;;14.10;52.40;;;;;;3480860;41;20043;-82
2021/04/25 11:12:54;;;;;;;6.78;3.30;;;13.80;53.00;;;;;;3486569;41;20041;-83
2021/04/25 11:15:58;;;;;;;14.15;3.15;;;13.80;52.30;;;;;;3477863;41;20092;-83
2021/04/25 11:18:58;;;;;;;8.35;3.65;;;14.20;52.00;;;;;;3466116;41;20061;-84
2021/04/25 11:21:42;;;;;;;10.32;2.67;;;14.70;51.10;;;;;;3472490;41;20065;-85
2021/04/25 11:24:28;;;;;;;7.60;2.95;;;14.60;50.60;;;;;;3482149;41;20107;-84
2021/04/25 11:26:59;;;;;;;7.93;2.60;;;14.10;51.90;;;;;;3478287;41;20416;-84
2021/04/25 11:30:03;;;;;;;8.55;2.90;;;13.90;52.50;;;;;;3496597;41;20037;-87
2021/04/25 11:32:33;;;;;;;15.35;2.78;;;14.20;52.50;;;;;;3486330;41;20041;-84
2021/04/25 11:35:19;;;;;;;7.00;2.50;;;14.60;50.80;;;;;;3483367;41;20081;-84
2021/04/25 11:38:07;;;;;;;7.75;2.65;;;14.90;50.10;;;;;;3476109;41;20090;-83
2021/04/25 11:40:36;;;;;;;16.90;3.10;;;14.70;49.00;;;;;;3471468;41;20341;-84
2021/04/25 11:43:03;;;;;;;6.68;2.50;;;14.40;49.90;;;;;;3470453;41;20410;-82
2021/04/25 11:45:33;;;;;;;10.73;2.55;;;14.20;50.90;;;;;;3495040;41;20067;-83
2021/04/25 11:48:02;;;;;;;7.43;2.77;;;13.90;50.90;;;;;;3478762;41;20125;-84
2021/04/25 11:50:40;;;;;;;8.18;3.05;;;13.60;51.30;;;;;;3479923;41;20036;-82
2021/04/25 11:53:09;;;;;;;8.23;2.88;;;13.40;51.60;;;;;;3480449;41;20053;-87
2021/04/25 11:55:36;;;;;;;4.30;2.10;;;13.50;52.20;;;;;;3482830;41;20058;-82
2021/04/25 11:58:05;;;;;;;6.40;2.50;;;13.70;51.80;;;;;;3477640;41;20084;-84
2021/04/25 12:00:35;;;;;;;6.57;2.08;;;14.00;51.20;;;;;;3471091;41;20075;-83
2021/04/25 12:03:05;;;;;;;6.80;2.70;;;14.20;49.90;;;;;;3483595;41;20067;-84
2021/04/25 12:05:37;;;;;;;8.15;2.13;;;14.30;50.30;;;;;;3484107;41;20061;-85
2021/04/25 12:08:06;;;;;;;6.90;2.80;;;14.70;49.90;;;;;;3474640;41;20093;-85
2021/04/25 12:10:36;;;;;;;10.48;2.95;;;14.70;49.60;;;;;;3475077;41;20070;-85
2021/04/25 12:13:13;;;;;;;8.23;2.95;;;14.70;49.40;;;;;;3495911;41;20293;-83
2021/04/25 12:18:58;;;;;;;14.65;2.70;;;14.70;50.10;;;;;;3617159;24;20065;-92
2021/04/25 12:21:36;;;;;;;10.77;2.80;;;14.80;49.80;;;;;;3595926;24;20035;31
2021/04/25 12:24:30;;;;;;;9.25;2.30;;;15.50;48.70;;;;;;1674868;24;20204;-90
2021/04/25 12:30:37;;;;;;;10.43;2.50;;;16.30;46.20;;;;;;2031316;24;20866;-92
2021/04/25 12:36:04;;;;;;;9.30;2.50;;;15.40;47.30;;;;;;3584345;24;20062;31
2021/04/25 12:38:33;;;;;;;9.45;2.53;;;15.20;47.80;;;;;;2419333;24;21369;31
2021/04/25 12:41:40;;;;;;;7.38;2.63;;;15.70;47.70;;;;;;1381697;24;20977;-92
2021/04/25 12:47:34;;;;;;;8.48;2.70;;;17.10;46.50;;;;;;3704740;24;20058;-86
2021/04/25 12:50:13;;;;;;;8.93;3.80;;;19.40;42.00;;;;;;3701970;24;20225;-82
2021/04/25 12:55:35;;;;;;;12.02;2.80;;;20.70;39.70;;;;;;3594191;24;20049;-82
2021/04/25 12:58:18;;;;;;;14.82;2.80;;;21.70;37.40;;;;;;2871622;24;20045;-77
2021/04/25 13:03:55;;;;;;;8.98;2.90;;;21.40;37.20;;;;;;1560307;24;20191;-89
2021/04/25 13:17:43;;;;;;;6.38;2.33;;;22.90;33.40;;;;;;3486479;41;20037;-81
2021/04/25 13:25:50;;;;;;;6.22;2.17;;;21.20;35.80;;;;;;3025053;24;20030;-77
2021/04/25 13:31:30;;;;;;;8.10;2.35;;;22.70;33.70;;;;;;3665734;24;20065;-89
2021/04/25 13:34:24;;;;;;;9.52;2.85;;;22.50;31.70;;;;;;1609438;24;20199;-91
2021/04/25 13:42:44;;;;;;;6.78;2.58;;;20.00;35.00;;;;;;1324551;24;21315;31
2021/04/25 13:48:10;;;;;;;9.30;2.45;;;19.90;34.30;;;;;;1467169;24;20429;-89
2021/04/25 13:56:50;;;;;;;16.33;3.13;;;22.60;31.10;;;;;;1136711;24;20214;31
2021/04/25 13:59:23;;;;;;;7.72;2.33;;;22.30;31.00;;;;;;3578044;24;20069;-86
2021/04/25 14:01:52;;;;;;;8.20;3.10;;;20.50;33.10;;;;;;3478521;41;20077;-86
2021/04/25 14:04:20;;;;;;;6.87;2.23;;;19.80;34.60;;;;;;3486425;41;20094;-86
2021/04/25 14:06:50;;;;;;;11.27;3.83;;;21.60;33.70;;;;;;3494387;41;20325;-86
2021/04/25 14:09:29;;;;;;;7.45;2.30;;;23.80;30.90;;;;;;3481409;41;20057;-88
2021/04/25 14:12:32;;;;;;;7.65;2.55;;;23.10;29.80;;;;;;3549229;24;20058;-90
2021/04/25 14:20:58;;;;;;;9.40;2.70;;;17.80;36.20;;;;;;4006369;24;20062;-88
2021/04/25 14:26:22;;;;;;;5.50;2.17;;;18.10;37.10;;;;;;3659401;23;20065;-86
2021/04/25 14:31:44;;;;;;;7.40;2.40;;;22.40;31.30;;;;;;3466602;41;20066;-86
2021/04/25 14:34:17;;;;;;;6.13;1.92;;;23.80;30.00;;;;;;3466536;41;20051;-88
2021/04/25 14:36:49;;;;;;;7.25;1.92;;;25.20;29.00;;;;;;3458033;41;20099;-87
2021/04/25 14:39:18;;;;;;;6.43;2.30;;;26.00;28.20;;;;;;3456893;41;20387;-86
2021/04/25 14:41:46;;;;;;;5.53;2.20;;;27.00;28.10;;;;;;3456328;41;20067;-83